createdAt,value
2022-10-14T00:02:00.623Z,67.34
2022-10-14T00:07:04.643Z,67.34
2022-10-14T00:12:07.390Z,67.42
2022-10-14T00:17:10.002Z,67.28
2022-10-14T00:22:14.063Z,67.25
2022-10-14T00:27:16.724Z,67.41
2022-10-14T00:32:19.396Z,67.55
2022-10-14T00:37:23.819Z,67.68
2022-10-14T00:42:26.727Z,67.70
2022-10-14T00:47:30.644Z,67.77
2022-10-14T00:52:35.639Z,67.91
2022-10-14T00:57:39.814Z,67.77
2022-10-14T01:02:44.140Z,67.78
2022-10-14T01:07:58.559Z,67.94
2022-10-14T01:13:09.084Z,67.85
2022-10-14T01:18:20.147Z,68.04
2022-10-14T01:23:44.390Z,68.18
2022-10-14T01:28:55.947Z,68.34
2022-10-14T01:34:03.515Z,68.28
2022-10-14T01:39:14.879Z,68.49
2022-10-14T01:44:22.122Z,68.58
2022-10-14T01:49:30.320Z,68.72
2022-10-14T01:54:36.528Z,68.87
2022-10-14T01:59:41.673Z,68.96
2022-10-14T02:04:45.800Z,69.03
2022-10-14T02:09:58.608Z,69.21
2022-10-14T02:15:17.347Z,69.29
2022-10-14T02:20:28.452Z,69.38
2022-10-14T02:25:35.292Z,69.44
2022-10-14T02:30:41.530Z,69.46
2022-10-14T02:35:46.378Z,69.67
2022-10-14T02:40:51.685Z,69.79
2022-10-14T02:45:59.146Z,69.87
2022-10-14T02:51:03.326Z,69.94
2022-10-14T02:56:06.489Z,70.01
2022-10-14T03:01:10.644Z,70.25
2022-10-14T03:06:16.039Z,70.47
2022-10-14T03:11:18.880Z,70.59
2022-10-14T03:16:21.818Z,70.73
2022-10-14T03:21:26.076Z,70.71
2022-10-14T03:26:29.682Z,70.85
2022-10-14T03:31:33.109Z,71.00
2022-10-14T03:36:55.936Z,71.01
2022-10-14T03:42:00.962Z,70.97
2022-10-14T03:47:10.906Z,71.00
2022-10-14T03:52:15.704Z,70.88
2022-10-14T03:57:20.120Z,70.89
2022-10-14T04:02:27.445Z,70.73
2022-10-14T04:07:34.537Z,70.60
2022-10-14T04:12:37.284Z,70.61
2022-10-14T04:17:44.726Z,70.61
2022-10-14T04:22:51.679Z,70.61
2022-10-14T04:27:56.029Z,70.45
2022-10-14T04:33:06.948Z,70.41
2022-10-14T04:38:11.531Z,70.59
2022-10-14T04:43:25.074Z,70.67
2022-10-14T04:48:28.797Z,70.54
2022-10-14T04:53:33.745Z,70.66
2022-10-14T04:58:45.199Z,70.69
2022-10-14T05:03:48.277Z,70.79
2022-10-14T05:08:53.719Z,70.80
2022-10-14T05:13:56.441Z,70.82
2022-10-14T05:19:02.496Z,70.65
2022-10-14T05:24:08.769Z,70.83
2022-10-14T05:29:14.641Z,70.75
2022-10-14T05:34:17.425Z,70.91
2022-10-14T05:39:22.331Z,70.85
2022-10-14T05:44:25.069Z,70.88
2022-10-14T05:49:28.561Z,71.00
2022-10-14T05:54:34.882Z,71.15
2022-10-14T05:59:39.675Z,71.10
2022-10-14T06:04:43.272Z,71.04
2022-10-14T06:09:47.976Z,71.20
2022-10-14T06:14:50.770Z,71.22
2022-10-14T06:19:53.421Z,71.05
2022-10-14T06:25:01.739Z,71.23
2022-10-14T06:30:07.683Z,71.18
2022-10-14T06:35:10.886Z,71.33
2022-10-14T06:40:14.948Z,71.41
2022-10-14T06:45:17.664Z,71.25
2022-10-14T06:50:20.470Z,71.22
2022-10-14T06:55:24.445Z,71.35
2022-10-14T07:00:27.074Z,71.08
2022-10-14T07:05:29.727Z,70.96
2022-10-14T07:10:33.728Z,70.92
2022-10-14T07:15:38.266Z,70.91
2022-10-14T07:20:40.995Z,70.86
2022-10-14T07:25:45.407Z,70.73
2022-10-14T07:30:57.849Z,70.81
2022-10-14T07:36:02.736Z,70.30
2022-10-14T07:41:16.667Z,71.10
2022-10-14T07:46:28.925Z,71.51
2022-10-14T07:51:31.855Z,71.37
2022-10-14T07:56:36.562Z,67.67
2022-10-14T08:01:39.276Z,70.56
2022-10-14T08:06:42.339Z,71.50
2022-10-14T08:11:46.686Z,71.18
2022-10-14T08:16:49.410Z,71.20
2022-10-14T08:21:53.293Z,71.13
2022-10-14T08:27:00.560Z,71.33
2022-10-14T08:32:03.308Z,72.00
2022-10-14T08:37:06.079Z,71.81
2022-10-14T08:42:32.285Z,71.86
2022-10-14T08:47:38.542Z,68.31
2022-10-14T08:52:49.202Z,68.61
2022-10-14T08:57:58.615Z,68.73
2022-10-14T09:03:12.405Z,69.15
2022-10-14T09:08:18.033Z,69.32
2022-10-14T09:13:31.108Z,69.53
2022-10-14T09:18:37.700Z,69.91
2022-10-14T09:23:40.360Z,69.86
2022-10-14T09:28:46.176Z,69.75
2022-10-14T09:33:48.863Z,69.95
2022-10-14T09:38:53.859Z,69.79
2022-10-14T09:44:22.547Z,69.95
2022-10-14T09:49:36.593Z,69.92
2022-10-14T09:54:39.353Z,70.11
2022-10-14T09:59:53.817Z,69.96
2022-10-14T10:04:57.284Z,69.94
2022-10-14T10:10:02.235Z,69.97
2022-10-14T10:15:07.626Z,69.95
2022-10-14T10:20:28.186Z,70.23
2022-10-14T10:25:31.328Z,70.68
2022-10-14T10:30:43.742Z,70.98
2022-10-14T10:36:13.273Z,71.99
2022-10-14T10:41:30.657Z,72.59
2022-10-14T10:46:52.376Z,67.53
2022-10-14T10:52:08.600Z,68.53
2022-10-14T10:57:30.410Z,69.63
2022-10-14T11:02:55.899Z,70.25
2022-10-14T11:08:22.641Z,70.48
2022-10-14T11:13:35.868Z,70.30
2022-10-14T11:18:48.176Z,70.38
2022-10-14T11:24:02.004Z,70.82
2022-10-14T11:29:16.050Z,71.15
2022-10-14T11:34:37.856Z,70.80
2022-10-14T11:39:48.228Z,71.33
2022-10-14T11:45:05.544Z,72.13
2022-10-14T11:50:17.408Z,72.27
2022-10-14T11:55:24.408Z,72.22
2022-10-14T12:01:16.947Z,72.73
2022-10-14T12:06:26.138Z,72.63
2022-10-14T12:11:34.047Z,72.65
2022-10-14T12:16:41.836Z,72.48
2022-10-14T12:21:55.946Z,72.76
2022-10-14T12:27:04.969Z,67.51
2022-10-14T12:32:19.510Z,64.54
2022-10-14T12:37:49.968Z,63.90
2022-10-14T12:42:59.376Z,63.48
2022-10-14T12:48:06.032Z,64.19
2022-10-14T12:53:22.328Z,64.90
2022-10-14T12:58:31.451Z,65.34
2022-10-14T13:03:42.159Z,66.13
2022-10-14T13:09:33.128Z,66.85
2022-10-14T13:14:59.127Z,67.13
2022-10-14T13:20:04.399Z,67.36
2022-10-14T13:25:19.306Z,67.68
2022-10-14T13:30:34.213Z,67.92
2022-10-14T13:35:49.595Z,67.77
2022-10-14T13:40:54.126Z,67.15
2022-10-14T13:46:04.322Z,66.89
2022-10-14T13:51:36.643Z,66.26
2022-10-14T13:56:40.235Z,66.27
2022-10-14T14:01:44.456Z,66.63
2022-10-14T14:07:03.117Z,66.55
2022-10-14T14:12:14.369Z,66.67
2022-10-14T14:17:20.766Z,66.92
2022-10-14T14:22:28.159Z,66.92
2022-10-14T14:27:30.849Z,67.08
2022-10-14T14:32:37.392Z,67.15
2022-10-14T14:37:55.151Z,66.96
2022-10-14T14:43:01.461Z,67.02
2022-10-14T14:48:08.758Z,67.50
2022-10-14T14:53:15.170Z,67.26
2022-10-14T14:58:25.508Z,67.38
2022-10-14T15:03:32.973Z,67.48
2022-10-14T15:08:37.967Z,67.52
2022-10-14T15:13:48.543Z,67.22
2022-10-14T15:19:34.226Z,66.86
2022-10-14T15:25:09.106Z,66.95
2022-10-14T15:30:23.900Z,67.15
2022-10-14T15:35:29.346Z,67.18
2022-10-14T15:40:34.051Z,67.27
2022-10-14T15:45:37.974Z,67.64
2022-10-14T15:50:45.748Z,67.93
2022-10-14T15:55:48.446Z,68.45
2022-10-14T16:00:51.126Z,69.55
2022-10-14T16:05:55.254Z,69.99
2022-10-14T16:10:59.085Z,70.58
2022-10-14T16:16:06.705Z,70.87
2022-10-14T16:21:16.206Z,71.01
2022-10-14T16:26:18.829Z,71.01
2022-10-14T16:31:22.372Z,71.02
2022-10-14T16:36:30.991Z,70.42
2022-10-14T16:41:33.771Z,70.09
2022-10-14T16:46:53.911Z,69.89
2022-10-14T16:51:58.006Z,69.14
2022-10-14T16:57:04.064Z,68.33
2022-10-14T17:02:10.533Z,68.31
2022-10-14T17:07:17.234Z,67.84
2022-10-14T17:12:19.850Z,67.51
2022-10-14T17:17:23.707Z,67.14
2022-10-14T17:22:28.317Z,66.79
2022-10-14T17:27:30.995Z,66.64
2022-10-14T17:32:33.606Z,66.62
2022-10-14T17:37:37.592Z,66.51
2022-10-14T17:42:40.467Z,66.54
2022-10-14T17:47:43.074Z,66.35
2022-10-14T17:52:47.266Z,66.45
2022-10-14T17:57:50.097Z,66.51
2022-10-14T18:02:52.694Z,66.45
2022-10-14T18:07:56.661Z,66.39
2022-10-14T18:12:59.336Z,66.53
2022-10-14T18:18:01.977Z,66.32
2022-10-14T18:23:07.526Z,66.49
2022-10-14T18:28:10.440Z,67.41
2022-10-14T18:33:13.279Z,67.45
2022-10-14T18:38:17.639Z,67.71
2022-10-14T18:43:20.356Z,67.72
2022-10-14T18:48:23.445Z,67.72
2022-10-14T18:53:28.185Z,67.82
2022-10-14T18:58:31.017Z,67.49
2022-10-14T19:03:34.851Z,67.69
2022-10-14T19:08:40.854Z,67.61
2022-10-14T19:13:45.148Z,67.37
2022-10-14T19:18:48.367Z,67.35
2022-10-14T19:23:52.526Z,67.36
2022-10-14T19:28:55.198Z,67.58
2022-10-14T19:34:00.720Z,67.31
2022-10-14T19:39:06.932Z,66.78
2022-10-14T19:44:10.443Z,67.15
2022-10-14T19:49:14.738Z,67.15
2022-10-14T19:54:19.127Z,66.89
2022-10-14T19:59:21.931Z,66.90
2022-10-14T20:04:26.670Z,66.79
2022-10-14T20:09:31.637Z,66.69
2022-10-14T20:14:34.277Z,66.61
2022-10-14T20:19:37.623Z,66.78
2022-10-14T20:24:41.635Z,66.64
2022-10-14T20:29:44.381Z,66.61
2022-10-14T20:34:47.928Z,66.42
2022-10-14T20:39:53.824Z,66.69
2022-10-14T20:44:56.668Z,66.49
2022-10-14T20:49:59.462Z,66.36
2022-10-14T20:55:03.588Z,66.39
2022-10-14T21:00:10.937Z,66.36
2022-10-14T21:05:13.559Z,66.43
2022-10-14T21:10:17.599Z,66.61
2022-10-14T21:15:20.366Z,66.65
2022-10-14T21:20:23.183Z,66.65
2022-10-14T21:25:27.360Z,66.86
2022-10-14T21:30:30.117Z,67.13
2022-10-14T21:35:32.956Z,67.27
2022-10-14T21:40:36.929Z,67.29
2022-10-14T21:45:39.582Z,67.28
2022-10-14T21:50:42.766Z,67.18
2022-10-14T21:55:52.846Z,67.52
2022-10-14T22:01:01.987Z,67.84
2022-10-14T22:06:07.832Z,67.77
2022-10-14T22:11:18.683Z,68.05
2022-10-14T22:16:21.994Z,67.74
2022-10-14T22:21:26.832Z,67.96
2022-10-14T22:26:32.062Z,67.90
2022-10-14T22:31:35.715Z,68.09
2022-10-14T22:36:38.997Z,68.02
2022-10-14T22:41:43.372Z,67.90
2022-10-14T22:46:47.040Z,67.98
2022-10-14T22:51:51.945Z,68.18
2022-10-14T22:56:57.415Z,68.20
2022-10-14T23:02:00.083Z,68.34
2022-10-14T23:07:06.137Z,68.25
2022-10-14T23:12:11.133Z,68.44
2022-10-14T23:17:14.210Z,68.41
2022-10-14T23:22:17.034Z,68.39
2022-10-14T23:27:21.000Z,68.84
2022-10-14T23:32:23.697Z,68.57
2022-10-14T23:37:26.350Z,68.58
2022-10-14T23:42:30.473Z,68.50
2022-10-14T23:47:33.183Z,68.39
2022-10-14T23:52:35.885Z,68.38
2022-10-14T23:57:40.228Z,68.33
